»·PEaware :: FJA1 KPDX-KSAN

FJA1 :: KPDX-KSAN

FLIGHT INFORMATION

Flight Status: Arrived
Operator: Unknown
More flights by this operator :: More flights under this callsign
Pilot: Jack S. (366)
Aircraft: BOEING 737-200
(B732)
More flights by this aircraft type
Origin: KPDX Portland Intl
United States
Destination: KSAN San Diego Intl-Lindbergh
United States
More flights between these airports :: More routes between these airports
Route: +PTLD1 UBG J126 EUG J143 PYE J88 LAX HUBRD1
File this flight plan on PilotEdge
Remarks: PBN / A1B2 DOF / 171222 REG / N62890 EET / KZOA0040 KZLA0128 MMZT0211 OPR / FJA RMK / TCAS SIMBRIEF
Altitude:
(Current/Filed)
29,000ft
Speed:
(Current/Filed)
437kts
Departed: 22-Dec-17 05:07 PM
Arrived: 22-Dec-17 07:23 PM
Distance/Time
Traveled:
811nm/2:16
Distance/Time
To Go:
Arrived

Flight Plot

Page will automatically refresh every two minutes.

Flight plan parsing failed; only flown route is shown


Map Options




Map Legend


Flown Route
Filed Route
Departure Airport
Arrival Airport
Navaid (VOR, NDB)
Fix

Horizontal Profiles

Position Reports

Time Latitude Longitude Heading Altitude Ground
Speed
22-Dec-17 16:47 45.589848 -122.599933 84 24ft 0kts
22-Dec-17 16:48 45.589848 -122.599933 84 24ft 0kts
22-Dec-17 16:49 45.589848 -122.599933 84 24ft 0kts
22-Dec-17 16:50 45.589848 -122.599933 84 24ft 0kts
22-Dec-17 16:51 45.589848 -122.599933 84 24ft 0kts
22-Dec-17 16:52 45.589848 -122.599933 84 24ft 0kts
22-Dec-17 16:53 45.589848 -122.599933 84 24ft 0kts
22-Dec-17 16:54 45.589848 -122.599933 84 24ft 0kts
22-Dec-17 16:55 45.589848 -122.599933 84 24ft 0kts
22-Dec-17 16:56 45.589848 -122.599933 84 24ft 0kts
22-Dec-17 16:57 45.589848 -122.599933 84 24ft 0kts
22-Dec-17 16:58 45.589848 -122.599933 84 24ft 0kts
22-Dec-17 16:59 45.589848 -122.599933 84 24ft 0kts
22-Dec-17 17:00 45.589848 -122.599933 84 24ft 0kts
22-Dec-17 17:01 45.589848 -122.599933 84 24ft 0kts
22-Dec-17 17:02 45.589848 -122.599933 84 24ft 0kts
22-Dec-17 17:03 45.589848 -122.599933 84 24ft 0kts
22-Dec-17 17:04 45.589849 -122.599928 84 24ft 0kts
22-Dec-17 17:05 45.589809 -122.600528 79 24ft 2kts
22-Dec-17 17:06 45.589367 -122.600936 345 24ft 2kts
22-Dec-17 17:07 45.589126 -122.600665 299 24ft 0kts
22-Dec-17 17:08 45.589126 -122.600665 299 24ft 0kts
22-Dec-17 17:09 45.589488 -122.601575 299 24ft 12kts
22-Dec-17 17:10 45.591952 -122.601008 44 24ft 15kts
22-Dec-17 17:11 45.594385 -122.597588 38 24ft 8kts
22-Dec-17 17:12 45.594461 -122.597494 40 24ft 0kts
22-Dec-17 17:13 45.594096 -122.593893 118 24ft 43kts
22-Dec-17 17:14 45.569412 -122.531235 119 1600ft 215kts
22-Dec-17 17:15 45.543228 -122.468408 119 3779ft 242kts
22-Dec-17 17:16 45.499406 -122.368428 119 5331ft 263kts
22-Dec-17 17:17 45.453718 -122.318888 182 6423ft 292kts
22-Dec-17 17:18 45.375343 -122.344690 196 9292ft 299kts
22-Dec-17 17:19 45.292945 -122.368288 210 11265ft 323kts
22-Dec-17 17:20 45.216871 -122.427423 216 13857ft 318kts
22-Dec-17 17:21 45.137811 -122.486991 216 15949ft 326kts
22-Dec-17 17:22 45.056930 -122.546947 217 17784ft 334kts
22-Dec-17 17:23 44.974195 -122.607891 218 19391ft 342kts
22-Dec-17 17:24 44.895174 -122.665754 217 20703ft 350kts
22-Dec-17 17:25 44.814450 -122.723857 218 21906ft 357kts
22-Dec-17 17:26 44.725489 -122.788690 218 23074ft 364kts
22-Dec-17 17:27 44.634677 -122.854517 218 24139ft 370kts
22-Dec-17 17:28 44.542949 -122.920857 218 25131ft 375kts
22-Dec-17 17:29 44.450780 -122.987260 218 26055ft 377kts
22-Dec-17 17:30 44.357003 -123.054574 218 26866ft 381kts
22-Dec-17 17:31 44.262744 -123.122000 218 27615ft 382kts
22-Dec-17 17:32 44.168366 -123.189198 218 28322ft 383kts
22-Dec-17 17:33 44.068426 -123.240782 193 28986ft 422kts
22-Dec-17 17:34 43.951411 -123.249690 197 29311ft 424kts
22-Dec-17 17:35 43.836868 -123.264585 197 29306ft 433kts
22-Dec-17 17:36 43.718587 -123.277656 196 29318ft 438kts
22-Dec-17 17:37 43.598407 -123.292304 198 29323ft 436kts
22-Dec-17 17:38 43.479489 -123.309226 198 29325ft 436kts
22-Dec-17 17:39 43.359170 -123.326553 198 29322ft 436kts
22-Dec-17 17:40 43.239825 -123.343586 198 29323ft 433kts
22-Dec-17 17:41 43.120217 -123.356750 188 29334ft 447kts
22-Dec-17 17:42 42.997792 -123.348865 190 29325ft 443kts
22-Dec-17 17:43 42.881650 -123.345265 190 29324ft 444kts
22-Dec-17 17:44 42.758230 -123.342144 190 29324ft 445kts
22-Dec-17 17:45 42.636313 -123.339234 190 29323ft 446kts
22-Dec-17 17:46 42.512617 -123.336330 190 29323ft 447kts
22-Dec-17 17:47 42.388787 -123.333438 190 29325ft 448kts
22-Dec-17 17:48 42.264349 -123.330542 190 29324ft 448kts
22-Dec-17 17:49 42.140145 -123.327667 190 29326ft 449kts
22-Dec-17 17:50 42.018022 -123.324803 190 30204ft 435kts
22-Dec-17 17:51 41.900308 -123.321860 191 30972ft 428kts
22-Dec-17 17:52 41.791682 -123.319644 191 31319ft 430kts
22-Dec-17 17:53 41.673791 -123.331971 193 31327ft 437kts
22-Dec-17 17:54 41.551061 -123.332239 191 31321ft 446kts
22-Dec-17 17:55 41.437077 -123.329892 190 31316ft 445kts
22-Dec-17 17:56 41.315664 -123.326972 190 31317ft 444kts
22-Dec-17 17:57 41.192213 -123.323945 190 31316ft 444kts
22-Dec-17 17:58 41.069306 -123.321049 190 31315ft 443kts
22-Dec-17 17:59 40.946176 -123.318147 188 31328ft 444kts
22-Dec-17 18:00 40.829845 -123.315333 188 31325ft 445kts
22-Dec-17 18:01 40.706702 -123.312387 188 31325ft 445kts
22-Dec-17 18:02 40.583198 -123.309439 188 31328ft 445kts
22-Dec-17 18:03 40.459684 -123.306496 188 31330ft 445kts
22-Dec-17 18:04 40.335956 -123.303588 188 31332ft 446kts
22-Dec-17 18:05 40.212016 -123.300704 188 31334ft 447kts
22-Dec-17 18:06 40.088901 -123.297826 188 31339ft 447kts
22-Dec-17 18:07 39.964747 -123.294951 188 31347ft 448kts
22-Dec-17 18:08 39.849709 -123.292326 188 31341ft 449kts
22-Dec-17 18:09 39.726726 -123.289481 188 31343ft 448kts
22-Dec-17 18:10 39.602320 -123.286596 188 31344ft 449kts
22-Dec-17 18:11 39.478256 -123.283748 188 31344ft 449kts
22-Dec-17 18:12 39.353468 -123.280919 188 31343ft 449kts
22-Dec-17 18:13 39.228846 -123.278114 188 31344ft 450kts
22-Dec-17 18:14 39.104367 -123.275311 188 31345ft 450kts
22-Dec-17 18:15 38.979279 -123.272611 187 31346ft 451kts
22-Dec-17 18:16 38.870949 -123.213016 158 31349ft 478kts
22-Dec-17 18:17 38.750903 -123.150697 167 31333ft 472kts
22-Dec-17 18:18 38.627011 -123.097482 168 31328ft 472kts
22-Dec-17 18:19 38.502996 -123.045052 167 31329ft 474kts
22-Dec-17 18:20 38.378600 -122.991848 168 31329ft 474kts
22-Dec-17 18:21 38.253449 -122.939635 168 31332ft 476kts
22-Dec-17 18:22 38.127758 -122.887588 168 31349ft 477kts
22-Dec-17 18:23 38.009113 -122.813973 141 31392ft 493kts
22-Dec-17 18:24 37.902222 -122.705487 146 31365ft 494kts
22-Dec-17 18:25 37.794631 -122.608175 148 31324ft 495kts
22-Dec-17 18:26 37.683092 -122.508088 148 31324ft 496kts
22-Dec-17 18:27 37.571432 -122.407573 148 31339ft 497kts
22-Dec-17 18:28 37.460255 -122.307259 148 31319ft 498kts
22-Dec-17 18:29 37.349745 -122.208275 148 31334ft 497kts
22-Dec-17 18:30 37.237412 -122.108134 148 31346ft 497kts
22-Dec-17 18:31 37.125060 -122.008338 148 31341ft 498kts
22-Dec-17 18:32 37.012094 -121.908412 147 31336ft 499kts
22-Dec-17 18:33 36.899974 -121.809515 146 31335ft 499kts
22-Dec-17 18:34 36.794367 -121.717770 146 31321ft 498kts
22-Dec-17 18:35 36.681025 -121.618882 146 31322ft 498kts
22-Dec-17 18:36 36.568875 -121.520813 146 31323ft 498kts
22-Dec-17 18:37 36.456023 -121.422613 146 31326ft 497kts
22-Dec-17 18:38 36.342932 -121.324328 146 31317ft 497kts
22-Dec-17 18:39 36.231792 -121.228151 147 31320ft 496kts
22-Dec-17 18:40 36.119093 -121.131313 147 31318ft 496kts
22-Dec-17 18:41 36.005959 -121.034382 146 31315ft 496kts
22-Dec-17 18:42 35.899645 -120.943587 146 31317ft 497kts
22-Dec-17 18:43 35.794322 -120.844975 145 31308ft 496kts
22-Dec-17 18:44 35.681985 -120.747932 146 31311ft 496kts
22-Dec-17 18:45 35.568944 -120.652070 146 31313ft 496kts
22-Dec-17 18:46 35.455327 -120.556239 146 31318ft 496kts
22-Dec-17 18:47 35.341682 -120.460752 146 31326ft 497kts
22-Dec-17 18:48 35.227719 -120.365357 146 31325ft 498kts
22-Dec-17 18:49 35.128860 -120.281807 147 31313ft 498kts
22-Dec-17 18:50 35.014406 -120.186714 147 31314ft 498kts
22-Dec-17 18:51 34.900329 -120.092074 145 31314ft 498kts
22-Dec-17 18:52 34.790965 -120.002541 145 31297ft 495kts
22-Dec-17 18:53 34.677225 -119.908883 145 31296ft 493kts
22-Dec-17 18:54 34.564130 -119.815986 145 31295ft 492kts
22-Dec-17 18:55 34.460156 -119.711981 115 31315ft 483kts
22-Dec-17 18:56 34.415865 -119.560814 109 31296ft 480kts
22-Dec-17 18:57 34.358910 -119.415161 113 31296ft 481kts
22-Dec-17 18:58 34.301348 -119.277521 114 31293ft 482kts
22-Dec-17 18:59 34.240653 -119.135514 114 31294ft 482kts
22-Dec-17 19:00 34.179560 -118.994135 114 30319ft 474kts
22-Dec-17 19:01 34.119465 -118.855895 114 28201ft 459kts
22-Dec-17 19:02 34.061116 -118.722310 114 26197ft 444kts
22-Dec-17 19:03 34.004740 -118.593566 114 24318ft 428kts
22-Dec-17 19:04 33.951158 -118.471667 114 24290ft 412kts
22-Dec-17 19:05 33.884638 -118.363658 133 24287ft 444kts
22-Dec-17 19:06 33.801686 -118.261897 132 24275ft 460kts
22-Dec-17 19:07 33.713715 -118.149805 131 24264ft 464kts
22-Dec-17 19:08 33.626716 -118.038443 131 24258ft 452kts
22-Dec-17 19:09 33.542790 -117.931250 131 23708ft 427kts
22-Dec-17 19:10 33.462933 -117.829571 131 21745ft 414kts
22-Dec-17 19:11 33.385579 -117.731386 131 19888ft 399kts
22-Dec-17 19:12 33.310851 -117.636598 131 18074ft 386kts
22-Dec-17 19:13 33.238427 -117.545138 132 16295ft 373kts
22-Dec-17 19:14 33.168440 -117.457105 132 15019ft 358kts
22-Dec-17 19:15 33.092821 -117.383613 162 14247ft 355kts
22-Dec-17 19:16 33.002249 -117.344154 157 12564ft 344kts
22-Dec-17 19:17 32.917531 -117.299687 155 11013ft 330kts
22-Dec-17 19:18 32.859330 -117.240480 103 10345ft 294kts
22-Dec-17 19:19 32.844410 -117.162388 101 9185ft 290kts
22-Dec-17 19:20 32.824337 -117.055384 101 7067ft 283kts
22-Dec-17 19:21 32.808096 -116.967623 101 5975ft 246kts
22-Dec-17 19:22 32.763319 -116.930689 181 5685ft 219kts
22-Dec-17 19:23 32.704657 -116.940114 231 4590ft 213kts
22-Dec-17 19:24 32.689948 -116.991363 277 3555ft 204kts
22-Dec-17 19:25 32.700858 -117.055159 287 2629ft 138kts
22-Dec-17 19:26 32.709425 -117.090367 287 1982ft 132kts
22-Dec-17 19:27 32.719837 -117.133157 287 1449ft 137kts
22-Dec-17 19:28 32.730448 -117.176840 288 128ft 131kts
22-Dec-17 19:29 32.735317 -117.197169 267 22ft 19kts
22-Dec-17 19:30 32.734901 -117.198987 252 20ft 0kts
22-Dec-17 19:31 32.735129 -117.202518 259 19ft 24kts
22-Dec-17 19:32 32.734557 -117.204525 135 18ft 1kts
22-Dec-17 19:33 32.734554 -117.204522 135 18ft 0kts
22-Dec-17 19:34 32.734554 -117.204522 135 18ft 0kts
22-Dec-17 19:35 32.734554 -117.204522 135 18ft 0kts
22-Dec-17 19:36 32.734554 -117.204522 135 18ft 0kts
22-Dec-17 19:37 32.734554 -117.204522 135 18ft 0kts
22-Dec-17 19:38 32.734554 -117.204522 135 18ft 0kts
22-Dec-17 19:39 32.734554 -117.204522 135 18ft 0kts
22-Dec-17 19:40 32.734554 -117.204522 135 18ft 0kts

Navigation Log

Ident Type
Flight plan parsing failed, navigation log unavailable